Vanetia, Texas
Current Conditions -  °F | °C
As of 8:35 AM on Friday 24 Oct 2014 (Local Time) from KLHB Reporting Station
Haze Haze  
Wind Chill: 58°   Ceiling: 5000
Heat Index: 58°   Visibility: 2mi
Dew Point: 55°   Wind: 0mph
Humidity: 90%   Direction: NA
Pressure: 30.19"   Gusts: NA
Location:  31.2206°N, 96.2362°W
Report Text: KLHB 241335Z AUTO 00000KT 2SM BR OVC050 14/13 A3019 RMK AO2 T01440127
Loading
Personal Weather Stations






























Interactive Weather Map
Tropical Storm Tracking
New forecast layout! Learn more

10-Day Weather Forecast

Advertisements
Track Severe Weather on mobile